Time;durP1;ratioP1;P1;durP2;ratioP2;P2;SDS_P1;SDS_P2;PMS_P1;PMS_P2;Temp;Humidity;BMP_temperature;BMP_pressure;BME280_temperature;BME280_humidity;BME280_pressure;Samples;Min_cycle;Max_cycle;Signal;HPM_P1;HPM_P2
2022/08/14 00:00:28;;;;;;;1999.90;999.90;;;13.20;91.00;;;;;;4974802;28;20047;-80
2022/08/14 00:02:53;;;;;;;1999.90;999.90;;;13.20;91.60;;;;;;4972599;28;20088;-81
2022/08/14 00:05:21;;;;;;;1999.90;999.90;;;13.20;92.00;;;;;;4973615;28;20305;-81
2022/08/14 00:07:48;;;;;;;1999.90;999.90;;;13.30;91.50;;;;;;4956487;28;20403;-81
2022/08/14 00:10:18;;;;;;;1999.90;999.90;;;13.40;91.30;;;;;;4973577;28;20046;-81
2022/08/14 00:12:51;;;;;;;1999.90;999.90;;;13.40;92.00;;;;;;4973369;28;20026;-85
2022/08/14 00:15:23;;;;;;;1999.90;999.90;;;13.50;91.50;;;;;;4972748;28;20023;-81
2022/08/14 00:17:50;;;;;;;1999.90;999.90;;;13.50;91.70;;;;;;4972841;28;20027;-81
2022/08/14 00:20:17;;;;;;;1999.90;999.90;;;13.40;91.60;;;;;;4955369;28;20070;-81
2022/08/14 00:22:44;;;;;;;1999.90;999.90;;;13.40;92.10;;;;;;4970383;28;20023;-84
2022/08/14 00:25:10;;;;;;;1999.90;999.90;;;13.30;92.20;;;;;;4962405;28;20022;-81
2022/08/14 00:27:36;;;;;;;1999.90;999.90;;;13.10;91.90;;;;;;4922042;28;20371;-81
2022/08/14 00:30:06;;;;;;;1999.90;999.90;;;13.10;92.40;;;;;;4969656;28;20038;-82
2022/08/14 00:32:31;;;;;;;1999.90;999.90;;;13.00;92.40;;;;;;4934029;28;20039;-81
2022/08/14 00:35:00;;;;;;;1999.90;999.90;;;12.90;93.30;;;;;;4933588;29;20031;-83
2022/08/14 00:37:26;;;;;;;1999.90;999.90;;;12.90;93.00;;;;;;4932277;29;20035;-81
2022/08/14 00:39:52;;;;;;;1999.90;999.90;;;12.80;93.30;;;;;;4934676;29;20648;-82
2022/08/14 00:42:21;;;;;;;1999.90;999.90;;;12.80;92.80;;;;;;4918741;29;20032;-81
2022/08/14 00:44:49;;;;;;;1999.90;999.90;;;12.80;92.50;;;;;;4933837;29;20391;-82
2022/08/14 00:47:16;;;;;;;1999.90;999.90;;;12.60;93.10;;;;;;4965494;28;20050;-81
2022/08/14 00:49:43;;;;;;;1999.90;999.90;;;12.60;93.40;;;;;;4950955;29;20062;-82
2022/08/14 00:52:14;;;;;;;1999.90;999.90;;;12.50;93.70;;;;;;4951928;29;20038;-82
2022/08/14 00:54:42;;;;;;;1999.90;999.90;;;12.40;94.40;;;;;;4950905;29;20605;-84
2022/08/14 00:57:07;;;;;;;1999.90;999.90;;;12.50;94.10;;;;;;4933153;29;20064;-82
2022/08/14 00:59:34;;;;;;;1999.90;999.90;;;12.50;94.30;;;;;;4949511;29;20035;-82
2022/08/14 01:02:00;;;;;;;1999.90;999.90;;;12.50;94.30;;;;;;4948043;28;20034;-82
2022/08/14 01:04:30;;;;;;;1999.90;999.90;;;12.50;93.90;;;;;;4945342;28;20039;-82
2022/08/14 01:06:57;;;;;;;1999.90;999.90;;;12.50;94.40;;;;;;4952082;28;20026;-83
2022/08/14 01:09:23;;;;;;;1999.90;999.90;;;12.50;94.20;;;;;;4952679;28;20034;-82
2022/08/14 01:11:50;;;;;;;1999.90;999.90;;;12.40;94.60;;;;;;4969970;28;20026;-82
2022/08/14 01:14:17;;;;;;;1999.90;999.90;;;12.40;94.70;;;;;;4967016;28;20027;-82
2022/08/14 01:16:44;;;;;;;1999.90;999.90;;;12.40;94.70;;;;;;4964903;28;20035;-88
2022/08/14 01:21:54;;;;;;;1999.90;999.90;;;12.40;95.20;;;;;;4969845;28;20034;-82
2022/08/14 01:24:23;;;;;;;1999.90;999.90;;;12.30;94.80;;;;;;4971597;28;20035;-82
2022/08/14 01:26:50;;;;;;;1999.90;999.90;;;12.40;95.20;;;;;;4952999;28;20548;-82
2022/08/14 01:29:18;;;;;;;1999.90;999.90;;;12.30;95.00;;;;;;4967932;28;20038;-82
2022/08/14 01:34:13;;;;;;;1999.90;999.90;;;12.30;95.10;;;;;;4970417;28;20368;-82
2022/08/14 01:36:40;;;;;;;1999.90;999.90;;;12.20;95.20;;;;;;4951952;28;20035;-84
2022/08/14 01:39:15;;;;;;;1999.90;999.90;;;12.20;95.20;;;;;;4968001;28;20027;-82
2022/08/14 01:41:51;;;;;;;1999.90;999.90;;;12.20;95.60;;;;;;4949345;28;20117;-82
2022/08/14 01:44:17;;;;;;;1999.90;999.90;;;12.20;95.40;;;;;;4951291;28;20061;-82
2022/08/14 01:46:44;;;;;;;1999.90;999.90;;;12.20;95.50;;;;;;4968884;28;20085;-83
2022/08/14 01:49:14;;;;;;;1999.90;999.90;;;12.20;95.30;;;;;;4953233;28;20035;-82
2022/08/14 01:51:43;;;;;;;1999.90;999.90;;;12.20;96.60;;;;;;4969701;28;20229;-82
2022/08/14 01:54:12;;;;;;;1999.90;999.90;;;12.30;96.30;;;;;;4968607;28;20113;-82
2022/08/14 01:56:38;;;;;;;1999.90;999.90;;;12.20;96.20;;;;;;4953898;28;20049;-82
2022/08/14 01:59:08;;;;;;;1999.90;999.90;;;12.20;96.10;;;;;;4951295;28;20058;-82
2022/08/14 02:01:34;;;;;;;1999.90;999.90;;;12.20;96.60;;;;;;4967718;28;20065;-82
2022/08/14 02:04:01;;;;;;;1999.90;999.90;;;12.10;96.90;;;;;;4953224;28;20086;-82
2022/08/14 02:06:28;;;;;;;1999.90;999.90;;;12.20;97.40;;;;;;4968010;28;20482;-82
2022/08/14 02:08:53;;;;;;;1999.90;999.90;;;12.10;96.70;;;;;;4952755;28;20113;-82
2022/08/14 02:11:22;;;;;;;1999.90;999.90;;;12.10;96.20;;;;;;4952037;28;20499;-82
2022/08/14 02:14:04;;;;;;;1999.90;999.90;;;12.10;96.20;;;;;;4967229;28;20120;-82
2022/08/14 02:16:37;;;;;;;1999.90;999.90;;;12.00;96.70;;;;;;4964957;28;20027;-82
2022/08/14 02:19:06;;;;;;;1999.90;999.90;;;12.00;96.20;;;;;;4962708;28;20110;-82
2022/08/14 02:21:35;;;;;;;1999.90;999.90;;;11.90;96.40;;;;;;4957597;28;20382;-82
2022/08/14 02:24:02;;;;;;;1999.90;999.90;;;11.80;96.40;;;;;;4953212;28;20577;-82
2022/08/14 02:26:31;;;;;;;1999.90;999.90;;;11.70;96.80;;;;;;4967761;28;20114;-83
2022/08/14 02:29:06;;;;;;;1999.90;999.90;;;11.80;96.90;;;;;;4969340;28;20038;-82
2022/08/14 02:31:35;;;;;;;1999.90;999.90;;;11.80;96.80;;;;;;4955360;28;20046;-82
2022/08/14 02:34:07;;;;;;;1999.90;999.90;;;11.90;96.60;;;;;;4919505;29;20035;-83
2022/08/14 02:36:32;;;;;;;1999.90;999.90;;;11.80;96.80;;;;;;4945948;29;20394;-84
2022/08/14 02:38:58;;;;;;;1999.90;999.90;;;11.80;96.90;;;;;;4949817;29;20019;-81
2022/08/14 02:41:24;;;;;;;1999.90;999.90;;;11.80;97.50;;;;;;4964620;28;20427;-83
2022/08/14 02:43:51;;;;;;;1999.90;999.90;;;11.80;97.20;;;;;;4949955;29;20023;-82
2022/08/14 02:46:17;;;;;;;1999.90;999.90;;;11.60;96.90;;;;;;4933218;29;20043;-82
2022/08/14 02:48:43;;;;;;;1999.90;999.90;;;11.60;96.80;;;;;;4948710;29;20042;-83
2022/08/14 02:51:13;;;;;;;1999.90;999.90;;;11.30;96.80;;;;;;4932210;29;20708;-82
2022/08/14 02:53:43;;;;;;;1999.90;999.90;;;11.20;96.80;;;;;;4947451;28;20046;-82
2022/08/14 02:56:09;;;;;;;1999.90;999.90;;;11.20;96.80;;;;;;4931655;29;20529;-84
2022/08/14 02:58:42;;;;;;;1999.90;999.90;;;11.10;97.20;;;;;;4948740;29;20039;-83
2022/08/14 03:01:09;;;;;;;1999.90;999.90;;;11.10;97.70;;;;;;4938870;28;20046;-83
2022/08/14 03:03:36;;;;;;;1999.90;999.90;;;11.10;98.10;;;;;;4968236;28;20027;-83
2022/08/14 03:06:06;;;;;;;1999.90;999.90;;;11.20;97.90;;;;;;4968511;28;20140;-83
2022/08/14 03:08:33;;;;;;;1999.90;999.90;;;11.30;98.10;;;;;;4947672;28;20402;-83
2022/08/14 03:11:00;;;;;;;1999.90;999.90;;;11.20;98.10;;;;;;4968190;28;20014;-83
2022/08/14 03:13:27;;;;;;;1999.90;999.90;;;11.20;98.30;;;;;;4950855;28;20033;-82
2022/08/14 03:15:53;;;;;;;1999.90;999.90;;;11.20;98.20;;;;;;4948974;28;20059;-83
2022/08/14 03:18:22;;;;;;;1999.90;999.90;;;11.30;99.10;;;;;;4953436;28;20103;-87
2022/08/14 03:20:49;;;;;;;1999.90;999.90;;;11.20;99.60;;;;;;4968916;28;20113;-83
2022/08/14 03:23:14;;;;;;;1999.90;999.90;;;11.10;99.50;;;;;;4967774;28;20027;-83
2022/08/14 03:25:41;;;;;;;1999.90;999.90;;;11.00;98.70;;;;;;4952065;28;20482;-83
2022/08/14 03:28:08;;;;;;;1999.90;999.90;;;10.90;98.80;;;;;;4968109;28;20106;-83
2022/08/14 03:30:36;;;;;;;1999.90;999.90;;;10.90;98.60;;;;;;4934536;28;20546;-84
2022/08/14 03:33:02;;;;;;;1999.90;999.90;;;10.80;98.70;;;;;;4952720;28;20027;-83
2022/08/14 03:35:29;;;;;;;1999.90;999.90;;;10.90;99.80;;;;;;4969532;28;20588;-83
2022/08/14 03:38:03;;;;;;;1999.90;999.90;;;10.90;99.30;;;;;;4968014;28;20490;-83
2022/08/14 03:40:29;;;;;;;1999.90;999.90;;;11.00;99.60;;;;;;4967657;28;20042;-84
2022/08/14 03:42:55;;;;;;;1999.90;999.90;;;10.90;99.70;;;;;;4967450;28;20027;-83
2022/08/14 03:45:23;;;;;;;1999.90;999.90;;;11.00;99.90;;;;;;4967961;28;20442;-82
2022/08/14 03:47:49;;;;;;;1999.90;999.90;;;10.90;99.50;;;;;;4949879;28;20450;-84
2022/08/14 03:50:15;;;;;;;1999.90;999.90;;;10.90;99.90;;;;;;4968068;28;20059;-83
2022/08/14 03:52:44;;;;;;;1999.90;999.90;;;10.80;99.90;;;;;;4949773;28;20019;-83
2022/08/14 03:55:11;;;;;;;1999.90;999.90;;;10.80;99.90;;;;;;4967734;28;20094;-83
2022/08/14 03:57:38;;;;;;;1999.90;999.90;;;10.90;99.90;;;;;;4967480;28;20429;-83
2022/08/14 04:00:12;;;;;;;1999.90;999.90;;;10.90;99.90;;;;;;4950831;28;20039;-83
2022/08/14 04:02:39;;;;;;;1999.90;999.90;;;11.00;99.90;;;;;;4966656;28;20041;-82
2022/08/14 04:05:07;;;;;;;1999.90;999.90;;;11.00;99.90;;;;;;4967067;28;20031;-83
2022/08/14 04:07:33;;;;;;;1999.90;999.90;;;11.00;99.90;;;;;;4966091;28;20584;-83
2022/08/14 04:09:59;;;;;;;1999.90;999.90;;;11.10;99.90;;;;;;4968802;28;20039;-83
2022/08/14 04:12:25;;;;;;;1999.90;999.90;;;11.00;99.90;;;;;;4965942;28;20031;-83
2022/08/14 04:14:51;;;;;;;1999.90;999.90;;;11.00;99.90;;;;;;4949947;28;20045;-84
2022/08/14 04:17:18;;;;;;;1999.90;999.90;;;10.90;99.90;;;;;;4950386;28;20035;-83
2022/08/14 04:19:45;;;;;;;1999.90;999.90;;;10.80;99.90;;;;;;4964559;28;20035;-83
2022/08/14 04:22:12;;;;;;;1999.90;999.90;;;10.80;99.90;;;;;;4967161;28;20049;-84
2022/08/14 04:24:39;;;;;;;1999.90;999.90;;;10.70;99.90;;;;;;4953252;28;20034;-84
2022/08/14 04:27:12;;;;;;;1999.90;999.90;;;10.50;99.90;;;;;;4953401;28;20105;-83
2022/08/14 04:29:42;;;;;;;1999.90;999.90;;;10.60;99.90;;;;;;4967764;28;20030;-83
2022/08/14 04:32:09;;;;;;;1999.90;999.90;;;10.70;99.90;;;;;;4952741;28;20130;-83
2022/08/14 04:34:39;;;;;;;1999.90;999.90;;;10.70;99.90;;;;;;4952690;28;20047;-83
2022/08/14 04:45:22;;;;;;;1999.90;999.90;;;10.90;99.90;;;;;;4968554;28;20046;-83
2022/08/14 04:50:34;;;;;;;1999.90;999.90;;;11.30;99.90;;;;;;4939957;28;20513;-83
2022/08/14 04:53:03;;;;;;;1999.90;999.90;;;11.40;99.90;;;;;;4970365;28;20046;-83
2022/08/14 04:55:28;;;;;;;1999.90;999.90;;;11.50;99.90;;;;;;4970279;28;20113;-83
2022/08/14 04:57:55;;;;;;;1999.90;999.90;;;11.70;99.90;;;;;;4952933;28;20277;-83
2022/08/14 05:00:21;;;;;;;1999.90;999.90;;;11.90;99.90;;;;;;4935355;28;20150;-82
2022/08/14 05:02:49;;;;;;;1999.90;999.90;;;12.00;99.90;;;;;;4970301;28;20081;-82
2022/08/14 05:05:15;;;;;;;1999.90;999.90;;;12.30;99.90;;;;;;4955120;28;20418;-83
2022/08/14 05:07:41;;;;;;;1999.90;999.90;;;12.40;99.90;;;;;;4969197;28;20026;-86
2022/08/14 05:10:07;;;;;;;1999.90;999.90;;;12.50;99.90;;;;;;4969900;28;20027;-82
2022/08/14 05:12:33;;;;;;;1999.90;999.90;;;12.60;99.90;;;;;;4970090;28;20042;-81
2022/08/14 05:14:59;;;;;;;1999.90;999.90;;;12.80;99.90;;;;;;4936945;28;20027;-82
2022/08/14 05:17:25;;;;;;;1999.90;999.90;;;12.80;99.90;;;;;;4969913;28;20406;-82
2022/08/14 05:19:52;;;;;;;1999.90;999.90;;;12.90;99.90;;;;;;4953643;28;20034;-82
2022/08/14 05:22:18;;;;;;;1999.90;999.90;;;13.10;99.90;;;;;;4952342;28;20042;-82
2022/08/14 05:24:47;;;;;;;1999.90;999.90;;;13.20;99.90;;;;;;4969888;28;20097;-83
2022/08/14 05:27:13;;;;;;;1999.90;999.90;;;13.40;99.90;;;;;;4969711;28;20030;-81
2022/08/14 05:29:43;;;;;;;1999.90;999.90;;;13.50;99.90;;;;;;4969745;28;20039;-82
2022/08/14 05:32:09;;;;;;;1999.90;999.90;;;13.60;99.90;;;;;;4927601;29;20526;-82
2022/08/14 05:34:35;;;;;;;1999.90;999.90;;;13.70;99.50;;;;;;4932172;29;20507;-82
2022/08/14 05:37:01;;;;;;;1999.90;999.90;;;13.80;98.10;;;;;;4930821;29;20076;-83
2022/08/14 05:39:27;;;;;;;1999.90;999.90;;;13.70;98.50;;;;;;4951803;29;20155;-82
2022/08/14 05:41:53;;;;;;;1999.90;999.90;;;13.70;99.10;;;;;;4947342;28;20130;-82
2022/08/14 05:44:19;;;;;;;1999.90;999.90;;;13.80;97.70;;;;;;4947944;29;20036;-83
2022/08/14 05:46:45;;;;;;;1999.90;999.90;;;13.80;98.30;;;;;;4948428;29;20027;-82
2022/08/14 05:49:10;;;;;;;1999.90;999.90;;;13.90;98.50;;;;;;4948270;29;20549;-82
2022/08/14 05:51:37;;;;;;;1999.90;999.90;;;13.90;98.00;;;;;;4944930;28;20039;-82
2022/08/14 05:54:03;;;;;;;1999.90;999.90;;;13.90;98.30;;;;;;4954487;28;20032;-82
2022/08/14 05:56:29;;;;;;;1999.90;999.90;;;14.00;98.20;;;;;;4955994;28;20422;-85
2022/08/14 05:58:54;;;;;;;1999.90;999.90;;;14.00;99.20;;;;;;4946038;28;20122;-83
2022/08/14 06:01:20;;;;;;;1999.90;999.90;;;14.10;96.70;;;;;;4948929;28;20498;-82
2022/08/14 06:03:46;;;;;;;1999.90;999.90;;;14.20;96.80;;;;;;4950560;28;20023;-80
2022/08/14 06:06:11;;;;;;;1999.90;999.90;;;14.30;95.70;;;;;;4977188;28;20800;-81
2022/08/14 06:08:37;;;;;;;1999.90;999.90;;;14.30;96.20;;;;;;4974273;28;20413;-82
2022/08/14 06:11:06;;;;;;;1999.90;999.90;;;14.40;95.70;;;;;;4956015;28;20599;-81
2022/08/14 06:13:34;;;;;;;1999.90;999.90;;;14.40;95.40;;;;;;4956755;28;20486;-80
2022/08/14 06:16:00;;;;;;;1999.90;999.90;;;14.60;94.60;;;;;;4955808;28;20034;-82
2022/08/14 06:18:26;;;;;;;1999.90;999.90;;;14.60;94.20;;;;;;4970448;28;20034;-83
2022/08/14 06:20:53;;;;;;;1999.90;999.90;;;14.50;94.70;;;;;;4957479;28;20041;-82
2022/08/14 06:23:19;;;;;;;1999.90;999.90;;;14.60;95.30;;;;;;4972764;28;20184;-83
2022/08/14 06:25:45;;;;;;;1999.90;999.90;;;14.60;95.40;;;;;;4955893;28;20783;-82
2022/08/14 06:28:24;;;;;;;1999.90;999.90;;;14.70;93.90;;;;;;4980545;28;20131;-82
2022/08/14 06:30:51;;;;;;;1999.90;999.90;;;14.70;94.40;;;;;;4971068;28;20041;-83
2022/08/14 06:33:17;;;;;;;1999.90;999.90;;;14.80;94.00;;;;;;4941780;28;20035;-82
2022/08/14 06:35:43;;;;;;;1999.90;999.90;;;14.90;93.80;;;;;;4974515;28;20027;-82
2022/08/14 06:38:15;;;;;;;1999.90;999.90;;;14.90;94.20;;;;;;4953837;28;20035;-83
2022/08/14 06:40:41;;;;;;;1999.90;999.90;;;15.00;94.60;;;;;;4946514;28;20538;-83
2022/08/14 06:43:10;;;;;;;1999.90;999.90;;;15.10;92.90;;;;;;4958925;28;20081;-82
2022/08/14 06:45:39;;;;;;;1999.90;999.90;;;15.20;92.40;;;;;;4945208;28;20052;-83
2022/08/14 06:48:22;;;;;;;1999.90;999.90;;;15.30;92.80;;;;;;4947100;28;20081;-82
2022/08/14 06:50:49;;;;;;;1999.90;999.90;;;15.50;91.40;;;;;;4969677;28;20205;-83
2022/08/14 06:53:18;;;;;;;1999.90;999.90;;;15.40;92.20;;;;;;4981023;28;20034;-83
2022/08/14 06:55:45;;;;;;;1999.90;999.90;;;15.60;91.10;;;;;;4950900;28;20046;-82
2022/08/14 06:58:16;;;;;;;1999.90;999.90;;;15.70;91.60;;;;;;4971503;28;20503;-83
2022/08/14 07:05:44;;;;;;;1999.90;999.90;;;15.60;91.70;;;;;;4951014;28;20035;-82
2022/08/14 07:06:14;;;;;;;1999.90;999.90;;;15.80;91.40;;;;;;4949947;28;20061;-82
2022/08/14 07:08:41;;;;;;;1999.90;999.90;;;15.80;91.10;;;;;;4948271;28;20686;-80
2022/08/14 07:11:06;;;;;;;1999.90;999.90;;;16.10;90.20;;;;;;4967265;28;20561;-80
2022/08/14 07:13:32;;;;;;;1999.90;999.90;;;16.10;90.10;;;;;;4956252;28;20039;-79
2022/08/14 07:15:58;;;;;;;1999.90;999.90;;;16.20;90.40;;;;;;4938461;28;20118;-80
2022/08/14 07:18:28;;;;;;;1999.90;999.90;;;16.40;90.30;;;;;;4941595;28;20090;-84
2022/08/14 07:20:55;;;;;;;1999.90;999.90;;;16.70;90.90;;;;;;4950671;28;20059;-83
2022/08/14 07:23:22;;;;;;;1999.90;999.90;;;16.80;90.10;;;;;;4971131;28;20051;-90
2022/08/14 07:25:51;;;;;;;1999.90;999.90;;;17.00;88.80;;;;;;4948583;28;20123;-87
2022/08/14 07:28:23;;;;;;;1999.90;999.90;;;17.10;86.70;;;;;;4958232;28;20034;-85
2022/08/14 07:30:56;;;;;;;1999.90;999.90;;;17.30;86.80;;;;;;4948204;28;20070;-87
2022/08/14 07:33:27;;;;;;;1999.90;999.90;;;17.50;87.90;;;;;;4949951;28;20031;-81
2022/08/14 07:35:53;;;;;;;1999.90;999.90;;;17.70;84.00;;;;;;4957136;28;20066;-83
2022/08/14 07:38:21;;;;;;;1999.90;999.90;;;17.70;84.10;;;;;;4948024;28;20066;-85
2022/08/14 07:40:50;;;;;;;1999.90;999.90;;;17.90;82.90;;;;;;4953914;28;20288;-86
2022/08/14 07:43:16;;;;;;;1999.90;999.90;;;17.80;83.10;;;;;;4958474;28;20125;-78
2022/08/14 07:45:43;;;;;;;1999.90;999.90;;;18.00;81.60;;;;;;4955803;28;20562;-78
2022/08/14 07:48:09;;;;;;;1999.90;999.90;;;17.90;81.50;;;;;;4942147;28;20078;-78
2022/08/14 07:50:35;;;;;;;1999.90;999.90;;;18.00;82.40;;;;;;4948011;28;20038;-78
2022/08/14 07:53:01;;;;;;;1999.90;999.90;;;18.40;82.80;;;;;;4947291;28;20042;-78
2022/08/14 07:55:27;;;;;;;1999.90;999.90;;;18.70;80.40;;;;;;4950128;28;20066;-78
2022/08/14 07:57:53;;;;;;;1999.90;999.90;;;18.80;79.00;;;;;;4970148;28;20656;-78
2022/08/14 08:00:22;;;;;;;1999.90;999.90;;;19.00;79.20;;;;;;4956554;28;20035;-81
2022/08/14 08:02:53;;;;;;;1999.90;999.90;;;19.10;77.50;;;;;;4940125;28;20054;-80
2022/08/14 08:05:23;;;;;;;1999.90;999.90;;;19.30;77.10;;;;;;4980964;28;20050;-77
2022/08/14 08:07:49;;;;;;;1999.90;999.90;;;19.60;78.10;;;;;;4954840;28;20130;-77
2022/08/14 08:10:30;;;;;;;1999.90;999.90;;;19.80;74.50;;;;;;4961872;28;20035;-78
2022/08/14 08:13:15;;;;;;;;;;;20.00;72.80;;;;;;4959528;28;20089;-78
2022/08/14 08:15:47;;;;;;;1999.90;999.90;;;20.10;72.20;;;;;;4971875;28;19914;-77
2022/08/14 08:18:15;;;;;;;1999.90;999.90;;;20.30;73.00;;;;;;4965724;28;20482;-79
2022/08/14 08:20:47;;;;;;;1999.90;999.90;;;20.60;72.00;;;;;;4971886;28;20031;-85
2022/08/14 08:23:14;;;;;;;1999.90;999.90;;;20.80;70.40;;;;;;4959902;28;20038;-79
2022/08/14 08:25:43;;;;;;;1999.90;999.90;;;20.90;70.70;;;;;;4955676;28;20494;-80
2022/08/14 08:28:10;;;;;;;1353.35;982.00;;;21.00;66.90;;;;;;4964760;28;20069;-79
2022/08/14 08:30:38;;;;;;;1183.15;990.58;;;21.20;63.60;;;;;;4962550;28;20041;-77
2022/08/14 08:33:06;;;;;;;1458.78;999.90;;;21.30;62.30;;;;;;4937367;28;20027;-77
2022/08/14 08:35:34;;;;;;;1128.57;995.13;;;21.50;64.50;;;;;;4966070;28;20033;-82
2022/08/14 08:38:03;;;;;;;1517.65;995.95;;;21.70;60.00;;;;;;4953852;28;20088;-77
2022/08/14 08:40:35;;;;;;;1557.38;999.90;;;21.80;62.80;;;;;;4981036;28;20031;-81
2022/08/14 08:43:02;;;;;;;1275.45;988.70;;;22.10;60.40;;;;;;4980687;28;20035;-77
2022/08/14 08:45:28;;;;;;;1459.28;999.90;;;22.30;58.40;;;;;;4957778;28;20042;-81
2022/08/14 08:47:54;;;;;;;1322.57;999.90;;;22.70;59.70;;;;;;4959203;28;20582;-80
2022/08/14 08:50:30;;;;;;;1103.25;988.95;;;22.60;57.30;;;;;;4965525;28;20037;-79
2022/08/14 08:53:03;;;;;;;1675.82;999.90;;;22.60;54.30;;;;;;4978440;28;20049;-83
2022/08/14 08:55:35;;;;;;;1473.07;999.90;;;23.00;59.20;;;;;;4958706;28;20055;-83
2022/08/14 08:58:04;;;;;;;1326.38;999.90;;;23.10;55.90;;;;;;4959923;28;20057;-86
2022/08/14 09:00:33;;;;;;;887.33;825.53;;;23.40;51.60;;;;;;4942728;28;20034;-89
2022/08/14 09:03:11;;;;;;;844.78;789.30;;;23.40;44.40;;;;;;4954631;28;20039;-89
2022/08/14 09:05:48;;;;;;;1099.75;991.53;;;23.60;46.90;;;;;;4949691;28;20030;-89
2022/08/14 09:08:24;;;;;;;1001.95;925.78;;;23.80;50.20;;;;;;4949062;28;20150;-90
2022/08/14 09:10:50;;;;;;;1031.07;943.55;;;24.00;46.00;;;;;;4966825;28;20014;-83
2022/08/14 09:13:17;;;;;;;878.30;814.28;;;24.40;44.40;;;;;;4967196;28;20034;-91
2022/08/14 09:15:46;;;;;;;951.95;867.53;;;24.40;41.80;;;;;;4950739;28;20050;-90
2022/08/14 09:18:14;;;;;;;933.95;864.80;;;24.30;42.70;;;;;;4947665;28;20037;-90
2022/08/14 09:20:42;;;;;;;772.08;725.13;;;24.50;42.30;;;;;;4968012;28;20093;-86
2022/08/14 09:23:09;;;;;;;935.78;861.70;;;24.90;40.00;;;;;;4934878;28;20046;-86
2022/08/14 09:25:36;;;;;;;911.13;843.83;;;25.20;42.40;;;;;;4950416;28;20031;-87
2022/08/14 09:28:03;;;;;;;882.72;817.97;;;25.10;42.70;;;;;;4966792;28;20391;-83
2022/08/14 09:30:32;;;;;;;975.33;893.38;;;25.00;43.50;;;;;;4965485;28;20027;-83
2022/08/14 09:33:03;;;;;;;905.78;838.80;;;25.10;43.30;;;;;;4950419;28;20062;-83
2022/08/14 09:35:54;;;;;;;859.90;804.42;;;25.40;42.80;;;;;;4964355;28;20026;-80
2022/08/14 09:39:05;;;;;;;865.20;806.28;;;25.80;39.70;;;;;;4963667;28;20397;-80
2022/08/14 09:41:41;;;;;;;867.60;810.20;;;25.70;42.10;;;;;;4966387;28;20035;-80
2022/08/14 09:44:26;;;;;;;874.72;818.85;;;25.40;42.40;;;;;;4962872;28;20094;-81
2022/08/14 09:46:55;;;;;;;874.95;817.10;;;25.90;39.40;;;;;;4946280;28;20140;-80
2022/08/14 09:49:32;;;;;;;874.93;817.00;;;25.80;39.70;;;;;;4967777;28;20506;-80
2022/08/14 09:52:12;;;;;;;963.95;892.97;;;26.00;39.20;;;;;;4965485;28;20030;-79
2022/08/14 09:54:47;;;;;;;857.20;799.58;;;25.90;39.40;;;;;;4965039;28;20520;-79
2022/08/14 09:57:30;;;;;;;984.08;908.97;;;26.00;38.40;;;;;;4964459;28;20050;-79
2022/08/14 09:59:55;;;;;;;836.10;778.30;;;26.30;40.50;;;;;;4948370;28;20023;-80
2022/08/14 10:02:23;;;;;;;980.08;906.53;;;26.40;39.20;;;;;;4964810;28;20042;-81
2022/08/14 10:05:29;;;;;;;774.83;725.47;;;26.30;40.10;;;;;;4967213;28;20096;-80
2022/08/14 10:07:55;;;;;;;735.25;689.58;;;26.60;37.90;;;;;;4934976;28;20043;-80
2022/08/14 10:10:30;;;;;;;807.80;754.00;;;26.60;37.90;;;;;;4964592;28;20034;-80
2022/08/14 10:12:57;;;;;;;647.78;612.38;;;27.30;37.10;;;;;;4949178;28;20042;-80
2022/08/14 10:15:26;;;;;;;682.90;645.13;;;27.20;32.70;;;;;;4965295;28;20140;-80
2022/08/14 10:18:06;;;;;;;812.47;760.50;;;27.20;34.70;;;;;;4964974;28;20027;-81
2022/08/14 10:20:40;;;;;;;738.63;694.42;;;27.10;34.30;;;;;;4966044;28;20118;-80
2022/08/14 10:23:18;;;;;;;849.08;780.45;;;27.30;33.80;;;;;;4946621;28;20054;-80
2022/08/14 10:25:49;;;;;;;801.22;749.97;;;27.20;35.90;;;;;;4962583;28;20027;-80
2022/08/14 10:28:16;;;;;;;800.28;748.33;;;27.00;38.30;;;;;;4949388;28;20481;-80
2022/08/14 10:30:46;;;;;;;741.22;697.38;;;27.40;35.90;;;;;;4964399;28;20038;-80
2022/08/14 10:33:30;;;;;;;852.67;798.85;;;27.70;32.20;;;;;;4960102;28;20039;-79
2022/08/14 10:35:59;;;;;;;778.58;729.85;;;27.90;33.70;;;;;;4964869;28;20193;-90
2022/08/14 10:38:43;;;;;;;857.63;802.03;;;28.20;33.70;;;;;;4958500;28;20368;-90
2022/08/14 10:41:14;;;;;;;533.95;509.02;;;28.40;32.80;;;;;;4968043;28;20151;-92
2022/08/14 10:43:42;;;;;;;539.50;514.17;;;28.40;28.90;;;;;;4964899;28;20672;-84
2022/08/14 10:46:13;;;;;;;504.23;481.95;;;28.10;29.80;;;;;;4949796;28;20043;-88
2022/08/14 10:48:39;;;;;;;682.60;641.53;;;28.20;27.30;;;;;;4946376;28;20081;-90
2022/08/14 10:51:05;;;;;;;540.58;516.05;;;28.60;31.20;;;;;;4947370;28;20078;-81
2022/08/14 10:53:36;;;;;;;565.88;538.90;;;29.10;29.50;;;;;;4959647;28;20121;-81
2022/08/14 10:56:08;;;;;;;629.47;593.35;;;29.00;29.00;;;;;;4966827;28;20466;-91
2022/08/14 10:58:33;;;;;;;648.55;613.15;;;28.70;29.60;;;;;;4950754;28;20077;-81
2022/08/14 11:01:06;;;;;;;369.60;352.15;;;28.60;28.60;;;;;;4965421;28;20434;-80
2022/08/14 11:03:42;;;;;;;515.00;487.63;;;28.90;26.70;;;;;;4965860;28;20223;-80
2022/08/14 11:06:19;;;;;;;393.45;374.83;;;29.60;29.00;;;;;;4961554;28;20034;-80
2022/08/14 11:08:46;;;;;;;396.52;378.30;;;30.90;26.70;;;;;;4946587;28;20050;-84
2022/08/14 11:11:13;;;;;;;232.25;223.13;;;30.70;25.60;;;;;;4963500;28;20086;-84
2022/08/14 11:13:45;;;;;;;372.77;356.60;;;30.90;24.80;;;;;;4961858;28;20022;-82
2022/08/14 11:16:14;;;;;;;417.25;396.83;;;30.90;25.50;;;;;;4949376;28;20122;-86
2022/08/14 11:18:44;;;;;;;349.50;333.70;;;30.70;24.50;;;;;;4947218;28;20450;-86
2022/08/14 11:21:15;;;;;;;535.38;508.52;;;32.20;23.40;;;;;;4945927;28;20505;-86
2022/08/14 11:23:44;;;;;;;421.98;402.92;;;31.70;27.10;;;;;;4963879;28;20969;-85
2022/08/14 11:26:12;;;;;;;444.13;422.23;;;30.90;23.30;;;;;;4927708;28;20171;-86
2022/08/14 11:28:42;;;;;;;664.03;627.25;;;31.50;24.00;;;;;;4953770;28;20039;-87
2022/08/14 11:31:09;;;;;;;;;;;30.40;24.90;;;;;;4929424;28;20123;-85
2022/08/14 11:33:36;;;;;;;343.88;329.75;;;31.40;24.60;;;;;;4967700;28;19921;-82
2022/08/14 11:36:05;;;;;;;449.85;428.85;;;31.80;21.30;;;;;;4949862;28;20181;-81
2022/08/14 11:38:42;;;;;;;573.10;543.60;;;32.30;21.50;;;;;;4963561;28;20035;-82
2022/08/14 11:41:10;;;;;;;573.03;543.13;;;31.70;23.40;;;;;;4970008;28;20041;-82
2022/08/14 11:43:43;;;;;;;557.65;529.45;;;31.40;25.30;;;;;;4952773;28;20030;-82
2022/08/14 11:46:09;;;;;;;724.03;660.45;;;31.30;23.30;;;;;;4966842;28;20023;-82
2022/08/14 11:48:56;;;;;;;616.58;583.75;;;31.00;23.10;;;;;;4949476;28;20308;-82
2022/08/14 11:51:26;;;;;;;626.38;593.15;;;31.00;24.60;;;;;;4949647;28;20046;-82
2022/08/14 11:53:53;;;;;;;510.48;484.42;;;31.30;23.60;;;;;;4953473;28;20042;-82
2022/08/14 11:56:20;;;;;;;315.88;303.63;;;31.80;23.40;;;;;;4947459;28;20051;-82
2022/08/14 11:58:51;;;;;;;352.70;338.63;;;32.70;20.20;;;;;;4968008;28;20134;-82
2022/08/14 12:01:27;;;;;;;223.00;214.68;;;32.70;20.90;;;;;;4967203;28;20035;-85
2022/08/14 12:03:55;;;;;;;307.77;296.10;;;34.20;18.60;;;;;;4967797;28;20034;-85
2022/08/14 12:06:21;;;;;;;253.13;243.55;;;33.00;18.90;;;;;;4950881;28;20045;-85
2022/08/14 12:08:52;;;;;;;220.18;211.80;;;34.40;17.90;;;;;;4951621;28;20422;-86
2022/08/14 12:11:18;;;;;;;280.00;269.48;;;34.20;17.70;;;;;;4969803;28;20026;-85
2022/08/14 12:13:44;;;;;;;226.43;217.98;;;35.00;18.20;;;;;;4967583;28;20072;-85
2022/08/14 12:16:15;;;;;;;218.07;209.60;;;34.80;19.20;;;;;;4965489;28;20510;-87
2022/08/14 12:18:44;;;;;;;212.57;204.30;;;35.50;18.80;;;;;;4950953;28;20377;-86
2022/08/14 12:21:19;;;;;;;198.55;190.80;;;35.30;18.20;;;;;;4967356;28;20015;-86
2022/08/14 12:24:01;;;;;;;192.35;184.80;;;36.00;16.30;;;;;;4966424;28;20027;-86
2022/08/14 12:26:27;;;;;;;162.75;156.45;;;36.50;15.90;;;;;;4966541;28;20067;-86
2022/08/14 12:29:15;;;;;;;232.15;222.60;;;36.80;15.40;;;;;;4948224;28;20399;-86
2022/08/14 12:31:42;;;;;;;121.78;117.30;;;36.90;15.30;;;;;;4965859;28;20030;-87